createdAt,value
2022-10-16T00:00:06.149Z,13.10
2022-10-16T00:02:56.450Z,13.10
2022-10-16T00:05:46.642Z,13.10
2022-10-16T00:08:35.798Z,13.10
2022-10-16T00:11:26.350Z,13.00
2022-10-16T00:14:16.965Z,13.00
2022-10-16T00:17:05.598Z,13.10
2022-10-16T00:19:55.548Z,13.20
2022-10-16T00:22:44.284Z,13.10
2022-10-16T00:25:34.756Z,13.10
2022-10-16T00:28:23.362Z,13.10
2022-10-16T00:31:13.744Z,13.10
2022-10-16T00:34:02.503Z,13.10
2022-10-16T00:36:52.461Z,13.00
2022-10-16T00:39:41.059Z,13.00
2022-10-16T00:42:29.801Z,13.00
2022-10-16T00:45:18.571Z,13.00
2022-10-16T00:48:09.850Z,13.00
2022-10-16T00:50:59.171Z,13.10
2022-10-16T00:53:49.967Z,13.00
2022-10-16T00:56:38.676Z,13.10
2022-10-16T00:59:30.299Z,13.10
2022-10-16T01:02:19.165Z,13.10
2022-10-16T01:05:08.411Z,13.10
2022-10-16T01:08:04.434Z,13.10
2022-10-16T01:10:59.756Z,13.00
2022-10-16T01:13:52.768Z,13.00
2022-10-16T01:16:47.086Z,13.00
2022-10-16T01:19:57.336Z,13.00
2022-10-16T01:22:58.301Z,13.00
2022-10-16T01:26:11.708Z,12.90
2022-10-16T01:29:09.874Z,13.00
2022-10-16T01:32:02.116Z,13.00
2022-10-16T01:34:54.398Z,13.00
2022-10-16T01:37:50.480Z,13.00
2022-10-16T01:40:43.975Z,13.00
2022-10-16T01:43:37.919Z,13.00
2022-10-16T01:46:29.560Z,13.00
2022-10-16T01:49:19.985Z,13.00
2022-10-16T01:52:13.231Z,13.00
2022-10-16T01:55:04.285Z,13.00
2022-10-16T01:57:55.800Z,13.10
2022-10-16T02:00:48.152Z,13.20
2022-10-16T02:03:41.028Z,13.30
2022-10-16T02:06:30.628Z,13.30
2022-10-16T02:09:19.224Z,13.30
2022-10-16T02:12:14.152Z,13.40
2022-10-16T02:15:02.910Z,13.40
2022-10-16T02:17:51.491Z,13.30
2022-10-16T02:20:48.865Z,13.30
2022-10-16T02:23:42.933Z,13.30
2022-10-16T02:26:37.585Z,13.30
2022-10-16T02:29:28.388Z,13.30
2022-10-16T02:32:20.619Z,13.20
2022-10-16T02:35:10.819Z,13.10
2022-10-16T02:38:01.635Z,13.00
2022-10-16T02:40:50.845Z,12.90
2022-10-16T02:43:39.364Z,12.90
2022-10-16T02:46:27.964Z,12.80
2022-10-16T02:49:16.483Z,12.80
2022-10-16T02:52:05.305Z,12.70
2022-10-16T02:54:55.221Z,12.60
2022-10-16T02:57:43.878Z,12.60
2022-10-16T03:00:32.468Z,12.50
2022-10-16T03:03:21.048Z,12.50
2022-10-16T03:06:09.643Z,12.50
2022-10-16T03:08:58.209Z,12.40
2022-10-16T03:11:48.195Z,12.40
2022-10-16T03:14:36.803Z,12.40
2022-10-16T03:17:26.073Z,12.40
2022-10-16T03:20:14.830Z,12.50
2022-10-16T03:23:03.691Z,12.50
2022-10-16T03:25:52.228Z,12.50
2022-10-16T03:28:42.358Z,12.50
2022-10-16T03:31:30.987Z,12.50
2022-10-16T03:34:19.543Z,12.50
2022-10-16T03:37:08.139Z,12.50
2022-10-16T03:39:56.789Z,12.50
2022-10-16T03:42:46.031Z,12.50
2022-10-16T03:45:35.971Z,12.60
2022-10-16T03:48:24.519Z,12.60
2022-10-16T03:51:13.103Z,12.50
2022-10-16T03:54:01.657Z,12.50
2022-10-16T03:56:50.708Z,12.50
2022-10-16T03:59:39.328Z,12.50
2022-10-16T04:02:29.278Z,12.50
2022-10-16T04:05:18.045Z,12.50
2022-10-16T04:08:06.854Z,12.50
2022-10-16T04:10:55.436Z,12.50
2022-10-16T04:13:44.781Z,12.60
2022-10-16T04:16:33.356Z,12.50
2022-10-16T04:19:23.263Z,12.50
2022-10-16T04:22:11.844Z,12.60
2022-10-16T04:25:00.378Z,12.70
2022-10-16T04:27:48.961Z,12.70
2022-10-16T04:30:39.592Z,12.70
2022-10-16T04:33:28.160Z,12.70
2022-10-16T04:36:18.151Z,12.60
2022-10-16T04:39:06.714Z,12.60
2022-10-16T04:41:55.297Z,12.60
2022-10-16T04:44:43.846Z,12.60
2022-10-16T04:47:32.420Z,12.60
2022-10-16T04:50:20.971Z,12.60
2022-10-16T04:53:10.911Z,12.60
2022-10-16T04:55:59.495Z,12.60
2022-10-16T04:58:48.040Z,12.70
2022-10-16T05:01:36.736Z,12.70
2022-10-16T05:04:25.540Z,12.70
2022-10-16T05:07:14.120Z,12.70
2022-10-16T05:10:04.073Z,12.70
2022-10-16T05:12:52.887Z,12.70
2022-10-16T05:15:41.925Z,12.70
2022-10-16T05:18:30.445Z,12.70
2022-10-16T05:21:18.983Z,12.70
2022-10-16T05:24:07.580Z,12.70
2022-10-16T05:26:58.038Z,12.80
2022-10-16T05:29:47.180Z,12.80
2022-10-16T05:32:35.963Z,12.80
2022-10-16T05:35:24.635Z,12.80
2022-10-16T05:38:13.280Z,12.80
2022-10-16T05:41:01.869Z,12.80
2022-10-16T05:43:51.840Z,12.80
2022-10-16T05:46:40.406Z,12.80
2022-10-16T05:49:29.025Z,12.80
2022-10-16T05:52:17.643Z,12.70
2022-10-16T05:55:07.083Z,12.80
2022-10-16T05:57:56.876Z,12.90
2022-10-16T06:00:46.828Z,12.90
2022-10-16T06:03:35.833Z,12.90
2022-10-16T06:06:26.839Z,12.90
2022-10-16T06:09:15.368Z,12.80
2022-10-16T06:12:04.001Z,12.80
2022-10-16T06:14:52.539Z,12.80
2022-10-16T06:17:42.481Z,12.80
2022-10-16T06:20:30.983Z,12.90
2022-10-16T06:23:19.500Z,12.90
2022-10-16T06:26:09.315Z,12.90
2022-10-16T06:28:59.122Z,12.90
2022-10-16T06:31:47.771Z,13.00
2022-10-16T06:34:39.497Z,12.90
2022-10-16T06:37:30.488Z,12.90
2022-10-16T06:40:19.041Z,13.00
2022-10-16T06:43:07.619Z,13.00
2022-10-16T06:45:57.092Z,13.00
2022-10-16T06:48:45.692Z,13.00
2022-10-16T06:51:40.574Z,13.10
2022-10-16T06:54:36.458Z,13.10
2022-10-16T06:57:30.746Z,13.10
2022-10-16T07:00:19.428Z,13.10
2022-10-16T07:03:08.048Z,13.10
2022-10-16T07:05:57.178Z,13.10
2022-10-16T07:08:48.486Z,13.10
2022-10-16T07:11:38.600Z,13.10
2022-10-16T07:14:27.138Z,13.10
2022-10-16T07:17:15.735Z,13.20
2022-10-16T07:20:04.536Z,13.20
2022-10-16T07:22:53.263Z,13.20
2022-10-16T07:25:43.199Z,13.30
2022-10-16T07:28:33.129Z,13.30
2022-10-16T07:31:23.595Z,13.30
2022-10-16T07:34:13.421Z,13.30
2022-10-16T07:37:01.980Z,13.30
2022-10-16T07:39:50.728Z,13.40
2022-10-16T07:42:40.739Z,13.40
2022-10-16T07:45:29.267Z,13.40
2022-10-16T07:48:17.939Z,13.40
2022-10-16T07:51:08.270Z,13.40
2022-10-16T07:53:56.816Z,13.50
2022-10-16T07:56:45.626Z,13.60
2022-10-16T07:59:35.575Z,13.60
2022-10-16T08:02:24.158Z,13.60
2022-10-16T08:05:12.695Z,13.60
2022-10-16T08:08:01.598Z,13.60
2022-10-16T08:10:50.174Z,13.60
2022-10-16T08:13:38.992Z,13.70
2022-10-16T08:16:28.961Z,13.70
2022-10-16T08:19:17.704Z,13.70
2022-10-16T08:22:06.278Z,13.70
2022-10-16T08:24:54.840Z,13.80
2022-10-16T08:27:43.411Z,13.80
2022-10-16T08:30:31.930Z,13.90
2022-10-16T08:33:22.325Z,13.90
2022-10-16T08:36:13.394Z,14.00
2022-10-16T08:39:01.952Z,14.10
2022-10-16T08:42:12.189Z,14.10
2022-10-16T08:45:29.822Z,14.10
2022-10-16T08:48:25.015Z,14.10
2022-10-16T08:51:17.770Z,14.20
2022-10-16T08:54:08.060Z,14.20
2022-10-16T08:56:57.854Z,14.30
2022-10-16T08:59:46.561Z,14.30
2022-10-16T09:02:39.780Z,14.30
2022-10-16T09:05:53.764Z,14.40
2022-10-16T09:08:53.552Z,14.50
2022-10-16T09:11:50.635Z,14.50
2022-10-16T09:14:52.474Z,14.50
2022-10-16T09:17:51.177Z,14.50
2022-10-16T09:20:55.902Z,14.50
2022-10-16T09:23:44.549Z,14.50
2022-10-16T09:26:33.127Z,14.40
2022-10-16T09:29:25.989Z,14.40
2022-10-16T09:32:18.270Z,14.50
2022-10-16T09:35:15.361Z,14.50
2022-10-16T09:38:05.337Z,14.50
2022-10-16T09:40:58.838Z,14.50
2022-10-16T09:43:55.447Z,14.50
2022-10-16T09:46:44.149Z,14.50
2022-10-16T09:49:32.743Z,14.50
2022-10-16T09:52:22.069Z,14.60
2022-10-16T09:55:18.284Z,14.60
2022-10-16T09:58:16.014Z,14.60
2022-10-16T10:01:04.564Z,14.70
2022-10-16T10:04:02.079Z,14.70
2022-10-16T10:06:54.016Z,14.70
2022-10-16T10:09:45.122Z,14.80
2022-10-16T10:12:37.577Z,15.00
2022-10-16T10:15:28.270Z,15.20
2022-10-16T10:18:22.789Z,15.20
2022-10-16T10:21:19.260Z,15.30
2022-10-16T10:24:11.556Z,15.30
2022-10-16T10:27:08.625Z,15.40
2022-10-16T10:30:03.994Z,15.50
2022-10-16T10:33:12.297Z,15.50
2022-10-16T10:36:10.930Z,15.60
2022-10-16T10:39:02.494Z,15.70
2022-10-16T10:42:14.119Z,15.80
2022-10-16T10:45:27.246Z,16.00
2022-10-16T10:51:30.205Z,16.10
2022-10-16T10:54:25.059Z,16.20
2022-10-16T10:57:24.633Z,16.30
2022-10-16T11:00:25.452Z,16.30
2022-10-16T11:03:30.271Z,16.30
2022-10-16T11:06:25.383Z,16.40
2022-10-16T11:09:18.880Z,16.50
2022-10-16T11:12:12.575Z,16.70
2022-10-16T11:15:06.777Z,16.90
2022-10-16T11:18:03.547Z,17.00
2022-10-16T11:20:56.548Z,17.10
2022-10-16T11:23:51.207Z,17.40
2022-10-16T11:26:44.783Z,17.40
2022-10-16T11:29:37.290Z,17.40
2022-10-16T11:32:32.082Z,17.50
2022-10-16T11:35:27.222Z,17.60
2022-10-16T11:38:25.652Z,17.60
2022-10-16T11:41:22.641Z,17.70
2022-10-16T11:44:29.896Z,17.70
2022-10-16T11:47:53.906Z,17.50
2022-10-16T11:50:45.127Z,17.40
2022-10-16T11:53:45.227Z,17.30
2022-10-16T11:56:36.137Z,17.20
2022-10-16T11:59:32.006Z,17.20
2022-10-16T12:02:41.034Z,17.20
2022-10-16T12:05:38.025Z,17.40
2022-10-16T12:08:29.033Z,17.40
2022-10-16T12:11:33.761Z,17.40
2022-10-16T12:14:42.910Z,17.40
2022-10-16T12:17:41.203Z,17.40
2022-10-16T12:20:33.052Z,17.40
2022-10-16T12:23:24.293Z,17.40
2022-10-16T12:26:14.389Z,17.40
2022-10-16T12:29:16.488Z,17.40
2022-10-16T12:32:07.402Z,17.40
2022-10-16T12:34:56.155Z,17.50
2022-10-16T12:37:45.054Z,17.50
2022-10-16T12:40:36.607Z,17.50
2022-10-16T12:43:38.779Z,17.50
2022-10-16T12:46:39.982Z,17.50
2022-10-16T12:49:39.744Z,17.50
2022-10-16T12:52:31.476Z,17.40
2022-10-16T12:55:22.057Z,17.30
2022-10-16T12:58:21.387Z,17.20
2022-10-16T13:01:21.943Z,17.20
2022-10-16T13:04:44.165Z,17.20
2022-10-16T13:07:51.647Z,17.20
2022-10-16T13:10:50.266Z,17.20
2022-10-16T13:14:04.065Z,17.30
2022-10-16T13:17:03.639Z,17.30
2022-10-16T13:20:01.065Z,17.60
2022-10-16T13:22:57.527Z,17.80
2022-10-16T13:25:58.947Z,17.90
2022-10-16T13:28:48.248Z,17.80
2022-10-16T13:31:40.257Z,17.50
2022-10-16T13:34:31.325Z,17.40
2022-10-16T13:37:21.692Z,17.20
2022-10-16T13:40:25.653Z,17.10
2022-10-16T13:43:14.325Z,17.10
2022-10-16T13:46:05.013Z,17.10
2022-10-16T13:49:00.479Z,17.10
2022-10-16T13:51:59.733Z,17.10
2022-10-16T13:54:49.012Z,17.10
2022-10-16T13:57:37.639Z,17.10
2022-10-16T14:00:31.285Z,17.20
2022-10-16T14:03:20.482Z,17.20
2022-10-16T14:06:16.856Z,17.20
2022-10-16T14:09:09.854Z,17.10
2022-10-16T14:12:02.220Z,17.20
2022-10-16T14:14:54.486Z,17.20
2022-10-16T14:17:47.796Z,17.20
2022-10-16T14:20:37.125Z,17.20
2022-10-16T14:23:31.561Z,17.10
2022-10-16T14:26:24.128Z,17.10
2022-10-16T14:29:17.812Z,17.10
2022-10-16T14:32:10.360Z,17.20
2022-10-16T14:34:58.932Z,17.20
2022-10-16T14:37:47.686Z,17.20
2022-10-16T14:40:39.271Z,17.30
2022-10-16T14:43:35.780Z,17.30
2022-10-16T14:46:30.739Z,17.50
2022-10-16T14:49:21.986Z,17.60
2022-10-16T14:52:12.714Z,17.50
2022-10-16T14:55:01.324Z,17.50
2022-10-16T14:57:50.358Z,17.40
2022-10-16T15:00:40.330Z,17.30
2022-10-16T15:03:28.929Z,17.20
2022-10-16T15:06:18.564Z,17.10
2022-10-16T15:09:07.165Z,17.10
2022-10-16T15:11:55.701Z,17.20
2022-10-16T15:14:44.302Z,17.00
2022-10-16T15:17:34.223Z,17.10
2022-10-16T15:20:22.792Z,17.10
2022-10-16T15:23:16.805Z,17.00
2022-10-16T15:26:05.477Z,17.10
2022-10-16T15:28:54.355Z,17.10
2022-10-16T15:31:43.685Z,17.00
2022-10-16T15:34:33.625Z,16.90
2022-10-16T15:37:22.140Z,16.90
2022-10-16T15:40:12.121Z,16.90
2022-10-16T15:43:00.659Z,16.80
2022-10-16T15:46:01.229Z,16.80
2022-10-16T15:48:50.252Z,16.70
2022-10-16T15:51:43.187Z,16.80
2022-10-16T15:54:31.781Z,16.70
2022-10-16T15:57:20.337Z,16.70
2022-10-16T16:00:10.944Z,16.60
2022-10-16T16:02:59.689Z,16.60
2022-10-16T16:05:48.247Z,16.50
2022-10-16T16:08:38.530Z,16.50
2022-10-16T16:11:27.245Z,16.50
2022-10-16T16:14:16.362Z,16.40
2022-10-16T16:17:04.921Z,16.40
2022-10-16T16:19:53.750Z,16.30
2022-10-16T16:22:42.389Z,16.30
2022-10-16T16:25:32.368Z,16.30
2022-10-16T16:28:20.898Z,16.30
2022-10-16T16:31:10.113Z,16.30
2022-10-16T16:33:59.383Z,16.20
2022-10-16T16:36:47.901Z,16.20
2022-10-16T16:39:36.488Z,16.20
2022-10-16T16:42:26.667Z,16.10
2022-10-16T16:45:15.286Z,16.10
2022-10-16T16:48:03.857Z,16.10
2022-10-16T16:50:52.409Z,16.10
2022-10-16T16:53:41.035Z,16.10
2022-10-16T16:56:29.588Z,16.00
2022-10-16T16:59:20.963Z,16.10
2022-10-16T17:02:10.824Z,16.00
2022-10-16T17:04:59.446Z,16.00
2022-10-16T17:07:47.980Z,16.00
2022-10-16T17:10:43.890Z,16.00
2022-10-16T17:13:38.324Z,16.00
2022-10-16T17:16:30.771Z,16.00
2022-10-16T17:19:21.156Z,16.00
2022-10-16T17:22:09.688Z,16.00
2022-10-16T17:24:58.239Z,16.00
2022-10-16T17:27:46.777Z,16.00
2022-10-16T17:30:35.983Z,16.00
2022-10-16T17:33:25.926Z,16.00
2022-10-16T17:36:15.262Z,16.00
2022-10-16T17:39:06.502Z,16.00
2022-10-16T17:41:55.776Z,16.00
2022-10-16T17:44:44.363Z,16.00
2022-10-16T17:47:32.917Z,16.00
2022-10-16T17:50:22.925Z,15.90
2022-10-16T17:53:11.571Z,15.90
2022-10-16T17:56:04.701Z,15.90
2022-10-16T17:58:54.801Z,15.80
2022-10-16T18:01:46.222Z,15.90
2022-10-16T18:04:35.123Z,15.90
2022-10-16T18:07:25.322Z,15.80
2022-10-16T18:10:15.526Z,15.90
2022-10-16T18:13:07.259Z,15.90
2022-10-16T18:16:01.833Z,15.90
2022-10-16T18:18:50.638Z,15.90
2022-10-16T18:21:39.267Z,15.80
2022-10-16T18:24:29.377Z,15.80
2022-10-16T18:27:17.968Z,15.80
2022-10-16T18:30:07.603Z,15.80
2022-10-16T18:32:56.157Z,15.80
2022-10-16T18:35:44.727Z,15.80
2022-10-16T18:38:33.900Z,15.80
2022-10-16T18:41:24.462Z,15.90
2022-10-16T18:44:13.872Z,15.90
2022-10-16T18:47:02.617Z,15.80
2022-10-16T18:49:52.208Z,15.90
2022-10-16T18:52:40.840Z,15.80
2022-10-16T18:55:30.965Z,15.80
2022-10-16T18:58:21.120Z,15.90
2022-10-16T19:01:16.681Z,15.90
2022-10-16T19:04:07.301Z,15.90
2022-10-16T19:06:56.092Z,15.80
2022-10-16T19:09:44.636Z,15.70
2022-10-16T19:12:33.211Z,15.70
2022-10-16T19:15:23.349Z,15.70
2022-10-16T19:18:11.903Z,15.70
2022-10-16T19:21:03.379Z,15.70
2022-10-16T19:23:53.872Z,15.60
2022-10-16T19:26:43.148Z,15.60
2022-10-16T19:29:31.920Z,15.60
2022-10-16T19:32:21.898Z,15.60
2022-10-16T19:35:10.774Z,15.60
2022-10-16T19:37:59.426Z,15.70
2022-10-16T19:40:47.980Z,15.60
2022-10-16T19:43:36.590Z,15.70
2022-10-16T19:46:27.345Z,15.70
2022-10-16T19:49:21.698Z,15.70
2022-10-16T19:52:10.288Z,15.60
2022-10-16T19:54:58.851Z,15.70
2022-10-16T19:57:47.475Z,15.70
2022-10-16T20:00:35.980Z,15.70
2022-10-16T20:03:24.670Z,15.70
2022-10-16T20:06:15.327Z,15.70
2022-10-16T20:09:03.926Z,15.70
2022-10-16T20:11:52.505Z,15.70
2022-10-16T20:14:41.082Z,15.70
2022-10-16T20:17:29.861Z,15.80
2022-10-16T20:20:18.805Z,15.70
2022-10-16T20:23:09.339Z,15.70
2022-10-16T20:26:04.089Z,15.80
2022-10-16T20:28:53.978Z,15.80
2022-10-16T20:31:42.696Z,15.70
2022-10-16T20:34:31.285Z,15.70
2022-10-16T20:37:20.142Z,15.80
2022-10-16T20:40:12.042Z,15.80
2022-10-16T20:43:00.637Z,15.80
2022-10-16T20:45:49.200Z,15.80
2022-10-16T20:48:41.127Z,15.90
2022-10-16T20:51:31.256Z,15.90
2022-10-16T20:54:19.828Z,15.80
2022-10-16T20:57:09.790Z,15.90
2022-10-16T20:59:58.699Z,15.90
2022-10-16T21:02:50.604Z,15.90
2022-10-16T21:05:42.545Z,16.00
2022-10-16T21:08:32.737Z,16.00
2022-10-16T21:11:23.000Z,16.00
2022-10-16T21:14:12.934Z,16.10
2022-10-16T21:17:02.373Z,16.10
2022-10-16T21:19:50.919Z,16.10
2022-10-16T21:22:39.512Z,16.10
2022-10-16T21:25:28.050Z,16.10
2022-10-16T21:28:16.913Z,16.00
2022-10-16T21:31:14.528Z,16.00
2022-10-16T21:34:03.189Z,16.00
2022-10-16T21:36:51.759Z,16.10
2022-10-16T21:39:40.401Z,16.10
2022-10-16T21:42:29.205Z,16.00
2022-10-16T21:45:17.859Z,16.20
2022-10-16T21:48:08.046Z,16.20
2022-10-16T21:50:56.572Z,16.30
2022-10-16T21:53:45.186Z,16.40
2022-10-16T21:56:34.057Z,16.30
2022-10-16T21:59:22.732Z,16.30
2022-10-16T22:02:11.305Z,16.30
2022-10-16T22:05:01.320Z,16.40
2022-10-16T22:07:49.875Z,16.40
2022-10-16T22:10:38.361Z,16.40
2022-10-16T22:13:26.931Z,16.40
2022-10-16T22:16:15.451Z,16.50
2022-10-16T22:19:07.358Z,16.50
2022-10-16T22:21:57.566Z,16.50
2022-10-16T22:24:46.973Z,16.50
2022-10-16T22:27:35.489Z,16.60
2022-10-16T22:30:24.066Z,16.50
2022-10-16T22:33:12.892Z,16.50
2022-10-16T22:36:01.977Z,16.50
2022-10-16T22:38:52.011Z,16.50
2022-10-16T22:41:40.519Z,16.50
2022-10-16T22:44:29.930Z,16.40
2022-10-16T22:47:18.475Z,16.30
2022-10-16T22:50:07.919Z,16.30
2022-10-16T22:52:57.451Z,16.30
2022-10-16T22:55:47.455Z,16.40
2022-10-16T22:58:36.201Z,16.30
2022-10-16T23:01:27.453Z,16.40
2022-10-16T23:04:16.034Z,16.40
2022-10-16T23:07:04.600Z,16.50
2022-10-16T23:09:54.745Z,16.50
2022-10-16T23:12:46.340Z,16.50
2022-10-16T23:15:34.985Z,16.50
2022-10-16T23:18:23.527Z,16.50
2022-10-16T23:21:14.371Z,16.50
2022-10-16T23:24:02.906Z,16.40
2022-10-16T23:26:51.428Z,16.50
2022-10-16T23:29:41.516Z,16.50
2022-10-16T23:32:30.362Z,16.50
2022-10-16T23:35:19.356Z,16.50
2022-10-16T23:38:08.019Z,16.40
2022-10-16T23:40:56.595Z,16.40
2022-10-16T23:43:45.338Z,16.40
2022-10-16T23:46:35.601Z,16.50
2022-10-16T23:49:24.254Z,16.50
2022-10-16T23:52:12.792Z,16.40
2022-10-16T23:55:01.376Z,16.40
2022-10-16T23:57:49.919Z,16.40
